sensor_id;sensor_type;location;lat;lon;timestamp;P1;durP1;ratioP1;P2;durP2;ratioP2
19482;SDS011;9882;51.166;6.992;2023-01-28T00:01:34;8.85;;;4.45;;
19482;SDS011;9882;51.166;6.992;2023-01-28T00:04:02;11.57;;;4.57;;
19482;SDS011;9882;51.166;6.992;2023-01-28T00:06:31;8.45;;;4.30;;
19482;SDS011;9882;51.166;6.992;2023-01-28T00:09:00;7.35;;;4.18;;
19482;SDS011;9882;51.166;6.992;2023-01-28T00:11:28;12.35;;;4.72;;
19482;SDS011;9882;51.166;6.992;2023-01-28T00:13:57;11.45;;;4.93;;
19482;SDS011;9882;51.166;6.992;2023-01-28T00:16:27;12.80;;;5.38;;
19482;SDS011;9882;51.166;6.992;2023-01-28T00:18:57;13.55;;;5.00;;
19482;SDS011;9882;51.166;6.992;2023-01-28T00:21:26;8.52;;;4.78;;
19482;SDS011;9882;51.166;6.992;2023-01-28T00:23:55;12.45;;;5.32;;
19482;SDS011;9882;51.166;6.992;2023-01-28T00:26:24;10.60;;;4.72;;
19482;SDS011;9882;51.166;6.992;2023-01-28T00:28:53;15.13;;;5.60;;
19482;SDS011;9882;51.166;6.992;2023-01-28T00:31:22;11.57;;;4.80;;
19482;SDS011;9882;51.166;6.992;2023-01-28T00:33:53;12.15;;;5.13;;
19482;SDS011;9882;51.166;6.992;2023-01-28T00:36:25;16.15;;;6.07;;
19482;SDS011;9882;51.166;6.992;2023-01-28T00:38:54;18.63;;;6.25;;
19482;SDS011;9882;51.166;6.992;2023-01-28T00:41:26;17.67;;;7.10;;
19482;SDS011;9882;51.166;6.992;2023-01-28T00:43:57;18.38;;;6.20;;
19482;SDS011;9882;51.166;6.992;2023-01-28T00:46:28;17.55;;;6.57;;
19482;SDS011;9882;51.166;6.992;2023-01-28T00:48:57;13.63;;;6.13;;
19482;SDS011;9882;51.166;6.992;2023-01-28T00:51:27;13.55;;;6.15;;
19482;SDS011;9882;51.166;6.992;2023-01-28T00:53:55;12.75;;;5.95;;
19482;SDS011;9882;51.166;6.992;2023-01-28T00:56:26;20.08;;;7.10;;
19482;SDS011;9882;51.166;6.992;2023-01-28T00:58:55;16.40;;;6.45;;
19482;SDS011;9882;51.166;6.992;2023-01-28T01:01:25;18.85;;;6.53;;
19482;SDS011;9882;51.166;6.992;2023-01-28T01:03:54;18.17;;;6.72;;
19482;SDS011;9882;51.166;6.992;2023-01-28T01:06:32;15.40;;;6.28;;
19482;SDS011;9882;51.166;6.992;2023-01-28T01:09:02;17.17;;;6.47;;
19482;SDS011;9882;51.166;6.992;2023-01-28T01:11:34;14.65;;;5.43;;
19482;SDS011;9882;51.166;6.992;2023-01-28T01:14:03;13.70;;;5.47;;
19482;SDS011;9882;51.166;6.992;2023-01-28T01:16:33;18.50;;;6.35;;
19482;SDS011;9882;51.166;6.992;2023-01-28T01:19:02;13.15;;;5.85;;
19482;SDS011;9882;51.166;6.992;2023-01-28T01:21:33;15.55;;;6.25;;
19482;SDS011;9882;51.166;6.992;2023-01-28T01:24:02;14.05;;;6.03;;
19482;SDS011;9882;51.166;6.992;2023-01-28T01:30:27;18.55;;;6.95;;
19482;SDS011;9882;51.166;6.992;2023-01-28T01:32:56;16.63;;;5.97;;
19482;SDS011;9882;51.166;6.992;2023-01-28T01:35:25;18.30;;;6.85;;
19482;SDS011;9882;51.166;6.992;2023-01-28T01:37:55;16.75;;;5.63;;
19482;SDS011;9882;51.166;6.992;2023-01-28T01:40:24;14.10;;;5.65;;
19482;SDS011;9882;51.166;6.992;2023-01-28T01:42:55;13.18;;;5.80;;
19482;SDS011;9882;51.166;6.992;2023-01-28T01:45:24;13.80;;;5.45;;
19482;SDS011;9882;51.166;6.992;2023-01-28T01:47:56;14.00;;;5.80;;
19482;SDS011;9882;51.166;6.992;2023-01-28T01:50:30;16.55;;;6.35;;
19482;SDS011;9882;51.166;6.992;2023-01-28T01:53:06;16.60;;;6.35;;
19482;SDS011;9882;51.166;6.992;2023-01-28T01:55:41;16.27;;;6.50;;
19482;SDS011;9882;51.166;6.992;2023-01-28T01:58:14;15.65;;;6.15;;
19482;SDS011;9882;51.166;6.992;2023-01-28T02:00:46;13.75;;;5.47;;
19482;SDS011;9882;51.166;6.992;2023-01-28T02:03:15;14.15;;;5.82;;
19482;SDS011;9882;51.166;6.992;2023-01-28T02:05:48;20.77;;;6.80;;
19482;SDS011;9882;51.166;6.992;2023-01-28T02:08:20;14.50;;;5.95;;
19482;SDS011;9882;51.166;6.992;2023-01-28T02:10:49;14.68;;;6.20;;
19482;SDS011;9882;51.166;6.992;2023-01-28T02:13:23;15.00;;;6.40;;
19482;SDS011;9882;51.166;6.992;2023-01-28T02:15:55;16.48;;;6.85;;
19482;SDS011;9882;51.166;6.992;2023-01-28T02:18:25;14.68;;;6.07;;
19482;SDS011;9882;51.166;6.992;2023-01-28T02:20:59;14.07;;;6.07;;
19482;SDS011;9882;51.166;6.992;2023-01-28T02:24:01;13.70;;;6.13;;
19482;SDS011;9882;51.166;6.992;2023-01-28T02:26:49;13.40;;;5.53;;
19482;SDS011;9882;51.166;6.992;2023-01-28T02:29:35;12.70;;;5.70;;
19482;SDS011;9882;51.166;6.992;2023-01-28T02:32:11;16.65;;;6.78;;
19482;SDS011;9882;51.166;6.992;2023-01-28T02:34:45;18.77;;;6.60;;
19482;SDS011;9882;51.166;6.992;2023-01-28T02:37:19;18.10;;;6.53;;
19482;SDS011;9882;51.166;6.992;2023-01-28T02:39:53;12.40;;;5.82;;
19482;SDS011;9882;51.166;6.992;2023-01-28T02:42:27;10.82;;;5.30;;
19482;SDS011;9882;51.166;6.992;2023-01-28T02:44:59;19.00;;;6.75;;
19482;SDS011;9882;51.166;6.992;2023-01-28T02:47:28;17.00;;;7.28;;
19482;SDS011;9882;51.166;6.992;2023-01-28T02:50:15;12.85;;;5.88;;
19482;SDS011;9882;51.166;6.992;2023-01-28T02:52:50;15.38;;;6.43;;
19482;SDS011;9882;51.166;6.992;2023-01-28T02:55:44;12.90;;;5.57;;
19482;SDS011;9882;51.166;6.992;2023-01-28T02:58:22;14.75;;;6.38;;
19482;SDS011;9882;51.166;6.992;2023-01-28T03:00:59;14.82;;;6.03;;
19482;SDS011;9882;51.166;6.992;2023-01-28T03:03:38;12.48;;;5.88;;
19482;SDS011;9882;51.166;6.992;2023-01-28T03:06:17;10.50;;;5.70;;
19482;SDS011;9882;51.166;6.992;2023-01-28T03:08:52;13.38;;;5.70;;
19482;SDS011;9882;51.166;6.992;2023-01-28T03:11:41;13.98;;;5.90;;
19482;SDS011;9882;51.166;6.992;2023-01-28T03:14:31;13.90;;;6.38;;
19482;SDS011;9882;51.166;6.992;2023-01-28T03:17:22;16.30;;;6.05;;
19482;SDS011;9882;51.166;6.992;2023-01-28T03:20:14;11.52;;;6.00;;
19482;SDS011;9882;51.166;6.992;2023-01-28T03:23:02;15.55;;;6.85;;
19482;SDS011;9882;51.166;6.992;2023-01-28T03:25:55;10.85;;;5.15;;
19482;SDS011;9882;51.166;6.992;2023-01-28T03:28:47;10.98;;;5.30;;
19482;SDS011;9882;51.166;6.992;2023-01-28T03:31:34;11.75;;;5.78;;
19482;SDS011;9882;51.166;6.992;2023-01-28T03:34:24;13.18;;;5.88;;
19482;SDS011;9882;51.166;6.992;2023-01-28T03:37:10;13.98;;;6.03;;
19482;SDS011;9882;51.166;6.992;2023-01-28T03:39:47;12.35;;;5.57;;
19482;SDS011;9882;51.166;6.992;2023-01-28T03:42:17;14.63;;;6.20;;
19482;SDS011;9882;51.166;6.992;2023-01-28T03:44:58;11.65;;;5.85;;
19482;SDS011;9882;51.166;6.992;2023-01-28T03:47:31;18.13;;;6.75;;
19482;SDS011;9882;51.166;6.992;2023-01-28T03:50:05;15.32;;;5.97;;
19482;SDS011;9882;51.166;6.992;2023-01-28T03:52:47;15.95;;;6.45;;
19482;SDS011;9882;51.166;6.992;2023-01-28T03:55:29;13.60;;;6.10;;
19482;SDS011;9882;51.166;6.992;2023-01-28T03:57:58;21.95;;;7.28;;
19482;SDS011;9882;51.166;6.992;2023-01-28T04:00:28;16.30;;;7.07;;
19482;SDS011;9882;51.166;6.992;2023-01-28T04:02:57;19.05;;;7.85;;
19482;SDS011;9882;51.166;6.992;2023-01-28T04:05:28;23.75;;;7.43;;
19482;SDS011;9882;51.166;6.992;2023-01-28T04:07:59;18.17;;;6.97;;
19482;SDS011;9882;51.166;6.992;2023-01-28T04:10:46;17.35;;;7.53;;
19482;SDS011;9882;51.166;6.992;2023-01-28T04:13:28;19.42;;;7.60;;
19482;SDS011;9882;51.166;6.992;2023-01-28T04:15:57;23.48;;;8.63;;
19482;SDS011;9882;51.166;6.992;2023-01-28T04:18:33;27.00;;;8.57;;
19482;SDS011;9882;51.166;6.992;2023-01-28T04:21:04;18.08;;;8.00;;
19482;SDS011;9882;51.166;6.992;2023-01-28T04:23:34;17.88;;;7.78;;
19482;SDS011;9882;51.166;6.992;2023-01-28T04:26:03;24.02;;;8.73;;
19482;SDS011;9882;51.166;6.992;2023-01-28T04:28:32;19.63;;;7.65;;
19482;SDS011;9882;51.166;6.992;2023-01-28T04:31:01;21.90;;;8.52;;
19482;SDS011;9882;51.166;6.992;2023-01-28T04:33:53;20.17;;;8.02;;
19482;SDS011;9882;51.166;6.992;2023-01-28T04:36:31;23.48;;;8.55;;
19482;SDS011;9882;51.166;6.992;2023-01-28T04:39:03;21.90;;;9.75;;
19482;SDS011;9882;51.166;6.992;2023-01-28T04:41:35;22.13;;;9.27;;
19482;SDS011;9882;51.166;6.992;2023-01-28T04:44:18;19.85;;;8.30;;
19482;SDS011;9882;51.166;6.992;2023-01-28T04:47:15;24.23;;;10.13;;
19482;SDS011;9882;51.166;6.992;2023-01-28T04:50:24;23.00;;;9.13;;
19482;SDS011;9882;51.166;6.992;2023-01-28T04:53:19;21.27;;;8.75;;
19482;SDS011;9882;51.166;6.992;2023-01-28T04:55:58;23.08;;;9.40;;
19482;SDS011;9882;51.166;6.992;2023-01-28T04:58:31;23.90;;;9.85;;
19482;SDS011;9882;51.166;6.992;2023-01-28T05:01:06;26.67;;;11.07;;
19482;SDS011;9882;51.166;6.992;2023-01-28T05:03:34;24.95;;;10.13;;
19482;SDS011;9882;51.166;6.992;2023-01-28T05:06:05;28.23;;;11.10;;
19482;SDS011;9882;51.166;6.992;2023-01-28T05:08:44;26.95;;;10.43;;
19482;SDS011;9882;51.166;6.992;2023-01-28T05:11:14;30.08;;;11.68;;
19482;SDS011;9882;51.166;6.992;2023-01-28T05:13:46;29.58;;;11.75;;
19482;SDS011;9882;51.166;6.992;2023-01-28T05:16:17;23.73;;;10.98;;
19482;SDS011;9882;51.166;6.992;2023-01-28T05:18:46;28.67;;;10.93;;
19482;SDS011;9882;51.166;6.992;2023-01-28T05:21:18;29.42;;;11.95;;
19482;SDS011;9882;51.166;6.992;2023-01-28T05:23:56;26.77;;;10.88;;
19482;SDS011;9882;51.166;6.992;2023-01-28T05:26:24;26.83;;;11.13;;
19482;SDS011;9882;51.166;6.992;2023-01-28T05:28:54;24.52;;;10.40;;
19482;SDS011;9882;51.166;6.992;2023-01-28T05:31:23;29.65;;;11.70;;
19482;SDS011;9882;51.166;6.992;2023-01-28T05:33:52;26.58;;;10.90;;
19482;SDS011;9882;51.166;6.992;2023-01-28T05:36:22;27.70;;;11.35;;
19482;SDS011;9882;51.166;6.992;2023-01-28T05:38:53;25.95;;;11.15;;
19482;SDS011;9882;51.166;6.992;2023-01-28T05:41:23;28.63;;;11.30;;
19482;SDS011;9882;51.166;6.992;2023-01-28T05:43:58;30.67;;;13.32;;
19482;SDS011;9882;51.166;6.992;2023-01-28T05:47:02;29.73;;;10.77;;
19482;SDS011;9882;51.166;6.992;2023-01-28T05:49:50;29.65;;;11.02;;
19482;SDS011;9882;51.166;6.992;2023-01-28T05:52:39;27.88;;;11.60;;
19482;SDS011;9882;51.166;6.992;2023-01-28T05:55:16;25.92;;;10.98;;
19482;SDS011;9882;51.166;6.992;2023-01-28T05:57:48;31.08;;;12.15;;
19482;SDS011;9882;51.166;6.992;2023-01-28T06:00:21;30.67;;;11.43;;
19482;SDS011;9882;51.166;6.992;2023-01-28T06:02:50;28.17;;;11.32;;
19482;SDS011;9882;51.166;6.992;2023-01-28T06:05:19;31.08;;;12.32;;
19482;SDS011;9882;51.166;6.992;2023-01-28T06:07:48;29.08;;;11.77;;
19482;SDS011;9882;51.166;6.992;2023-01-28T06:10:19;27.90;;;12.40;;
19482;SDS011;9882;51.166;6.992;2023-01-28T06:12:50;36.85;;;13.70;;
19482;SDS011;9882;51.166;6.992;2023-01-28T06:15:43;30.67;;;11.88;;
19482;SDS011;9882;51.166;6.992;2023-01-28T06:18:23;30.05;;;12.60;;
19482;SDS011;9882;51.166;6.992;2023-01-28T06:20:53;35.70;;;13.63;;
19482;SDS011;9882;51.166;6.992;2023-01-28T06:23:22;26.45;;;11.70;;
19482;SDS011;9882;51.166;6.992;2023-01-28T06:25:52;29.58;;;11.88;;
19482;SDS011;9882;51.166;6.992;2023-01-28T06:28:23;36.90;;;14.23;;
19482;SDS011;9882;51.166;6.992;2023-01-28T06:30:53;31.98;;;13.07;;
19482;SDS011;9882;51.166;6.992;2023-01-28T06:33:22;32.00;;;13.25;;
19482;SDS011;9882;51.166;6.992;2023-01-28T06:35:51;30.33;;;12.52;;
19482;SDS011;9882;51.166;6.992;2023-01-28T06:38:20;32.03;;;12.00;;
19482;SDS011;9882;51.166;6.992;2023-01-28T06:40:52;31.95;;;13.45;;
19482;SDS011;9882;51.166;6.992;2023-01-28T06:43:23;32.95;;;13.70;;
19482;SDS011;9882;51.166;6.992;2023-01-28T06:45:54;33.40;;;13.00;;
19482;SDS011;9882;51.166;6.992;2023-01-28T06:48:23;39.63;;;14.20;;
19482;SDS011;9882;51.166;6.992;2023-01-28T06:50:52;33.50;;;13.82;;
19482;SDS011;9882;51.166;6.992;2023-01-28T06:53:21;31.58;;;13.25;;
19482;SDS011;9882;51.166;6.992;2023-01-28T06:55:50;35.05;;;12.75;;
19482;SDS011;9882;51.166;6.992;2023-01-28T06:58:19;31.13;;;13.50;;
19482;SDS011;9882;51.166;6.992;2023-01-28T07:00:49;35.05;;;14.50;;
19482;SDS011;9882;51.166;6.992;2023-01-28T07:03:18;34.42;;;14.10;;
19482;SDS011;9882;51.166;6.992;2023-01-28T07:05:46;29.98;;;13.95;;
19482;SDS011;9882;51.166;6.992;2023-01-28T07:08:15;32.38;;;12.93;;
19482;SDS011;9882;51.166;6.992;2023-01-28T07:10:44;30.30;;;13.25;;
19482;SDS011;9882;51.166;6.992;2023-01-28T07:13:15;33.22;;;13.45;;
19482;SDS011;9882;51.166;6.992;2023-01-28T07:15:43;36.08;;;15.18;;
19482;SDS011;9882;51.166;6.992;2023-01-28T07:18:14;32.88;;;13.95;;
19482;SDS011;9882;51.166;6.992;2023-01-28T07:20:43;29.27;;;13.18;;
19482;SDS011;9882;51.166;6.992;2023-01-28T07:23:11;33.30;;;13.02;;
19482;SDS011;9882;51.166;6.992;2023-01-28T07:25:40;33.75;;;14.30;;
19482;SDS011;9882;51.166;6.992;2023-01-28T07:28:09;31.45;;;14.38;;
19482;SDS011;9882;51.166;6.992;2023-01-28T07:30:38;36.60;;;14.63;;
19482;SDS011;9882;51.166;6.992;2023-01-28T07:33:07;32.90;;;13.68;;
19482;SDS011;9882;51.166;6.992;2023-01-28T07:35:37;32.97;;;14.02;;
19482;SDS011;9882;51.166;6.992;2023-01-28T07:38:06;38.05;;;14.95;;
19482;SDS011;9882;51.166;6.992;2023-01-28T07:40:35;35.85;;;15.40;;
19482;SDS011;9882;51.166;6.992;2023-01-28T07:43:04;35.33;;;14.77;;
19482;SDS011;9882;51.166;6.992;2023-01-28T07:45:38;29.30;;;13.00;;
19482;SDS011;9882;51.166;6.992;2023-01-28T07:48:09;32.05;;;14.23;;
19482;SDS011;9882;51.166;6.992;2023-01-28T07:50:41;31.55;;;13.85;;
19482;SDS011;9882;51.166;6.992;2023-01-28T07:53:10;31.10;;;14.00;;
19482;SDS011;9882;51.166;6.992;2023-01-28T07:55:39;32.95;;;12.90;;
19482;SDS011;9882;51.166;6.992;2023-01-28T07:58:08;33.33;;;14.18;;
19482;SDS011;9882;51.166;6.992;2023-01-28T08:00:39;34.40;;;14.63;;
19482;SDS011;9882;51.166;6.992;2023-01-28T08:03:09;30.60;;;13.38;;
19482;SDS011;9882;51.166;6.992;2023-01-28T08:05:43;34.47;;;14.65;;
19482;SDS011;9882;51.166;6.992;2023-01-28T08:08:14;28.13;;;12.07;;
19482;SDS011;9882;51.166;6.992;2023-01-28T08:10:43;31.13;;;12.43;;
19482;SDS011;9882;51.166;6.992;2023-01-28T08:13:13;31.08;;;12.52;;
19482;SDS011;9882;51.166;6.992;2023-01-28T08:15:43;35.70;;;13.20;;
19482;SDS011;9882;51.166;6.992;2023-01-28T08:18:13;29.95;;;12.00;;
19482;SDS011;9882;51.166;6.992;2023-01-28T08:20:44;27.70;;;11.95;;
19482;SDS011;9882;51.166;6.992;2023-01-28T08:23:14;36.05;;;12.95;;
19482;SDS011;9882;51.166;6.992;2023-01-28T08:25:44;30.52;;;12.85;;
19482;SDS011;9882;51.166;6.992;2023-01-28T08:28:14;30.20;;;12.32;;
19482;SDS011;9882;51.166;6.992;2023-01-28T08:30:44;31.27;;;13.45;;
19482;SDS011;9882;51.166;6.992;2023-01-28T08:33:14;30.40;;;13.38;;
19482;SDS011;9882;51.166;6.992;2023-01-28T08:35:45;33.53;;;12.32;;
19482;SDS011;9882;51.166;6.992;2023-01-28T08:38:14;29.33;;;13.20;;
19482;SDS011;9882;51.166;6.992;2023-01-28T08:40:43;35.78;;;12.75;;
19482;SDS011;9882;51.166;6.992;2023-01-28T08:43:12;34.22;;;13.25;;
19482;SDS011;9882;51.166;6.992;2023-01-28T08:45:41;28.90;;;12.35;;
19482;SDS011;9882;51.166;6.992;2023-01-28T08:48:10;28.33;;;12.40;;
19482;SDS011;9882;51.166;6.992;2023-01-28T08:50:41;27.73;;;11.25;;
19482;SDS011;9882;51.166;6.992;2023-01-28T08:53:12;29.17;;;11.95;;
19482;SDS011;9882;51.166;6.992;2023-01-28T08:55:42;29.73;;;12.30;;
19482;SDS011;9882;51.166;6.992;2023-01-28T08:58:12;29.40;;;11.02;;
19482;SDS011;9882;51.166;6.992;2023-01-28T09:00:43;29.73;;;12.70;;
19482;SDS011;9882;51.166;6.992;2023-01-28T09:03:12;30.83;;;13.10;;
19482;SDS011;9882;51.166;6.992;2023-01-28T09:05:41;33.42;;;12.70;;
19482;SDS011;9882;51.166;6.992;2023-01-28T09:08:13;28.70;;;11.32;;
19482;SDS011;9882;51.166;6.992;2023-01-28T09:10:42;32.67;;;13.68;;
19482;SDS011;9882;51.166;6.992;2023-01-28T09:13:12;31.90;;;14.07;;
19482;SDS011;9882;51.166;6.992;2023-01-28T09:15:42;30.48;;;12.43;;
19482;SDS011;9882;51.166;6.992;2023-01-28T09:18:11;32.60;;;13.75;;
19482;SDS011;9882;51.166;6.992;2023-01-28T09:20:39;34.65;;;13.88;;
19482;SDS011;9882;51.166;6.992;2023-01-28T09:23:08;29.75;;;12.68;;
19482;SDS011;9882;51.166;6.992;2023-01-28T09:25:39;32.88;;;14.13;;
19482;SDS011;9882;51.166;6.992;2023-01-28T09:28:08;30.00;;;13.23;;
19482;SDS011;9882;51.166;6.992;2023-01-28T09:30:37;32.70;;;13.18;;
19482;SDS011;9882;51.166;6.992;2023-01-28T09:33:06;32.22;;;13.20;;
19482;SDS011;9882;51.166;6.992;2023-01-28T09:35:35;40.30;;;14.50;;
19482;SDS011;9882;51.166;6.992;2023-01-28T09:38:03;32.28;;;15.00;;
19482;SDS011;9882;51.166;6.992;2023-01-28T09:40:34;31.55;;;13.82;;
19482;SDS011;9882;51.166;6.992;2023-01-28T09:46:15;35.25;;;14.77;;
19482;SDS011;9882;51.166;6.992;2023-01-28T09:48:45;33.95;;;13.52;;
19482;SDS011;9882;51.166;6.992;2023-01-28T09:51:23;35.70;;;14.57;;
19482;SDS011;9882;51.166;6.992;2023-01-28T09:53:59;33.63;;;14.50;;
19482;SDS011;9882;51.166;6.992;2023-01-28T09:56:33;31.90;;;13.05;;
19482;SDS011;9882;51.166;6.992;2023-01-28T09:59:13;33.47;;;13.15;;
19482;SDS011;9882;51.166;6.992;2023-01-28T10:01:46;39.88;;;15.00;;
19482;SDS011;9882;51.166;6.992;2023-01-28T10:04:25;28.00;;;13.18;;
19482;SDS011;9882;51.166;6.992;2023-01-28T10:07:15;35.03;;;14.15;;
19482;SDS011;9882;51.166;6.992;2023-01-28T10:09:55;31.27;;;13.85;;
19482;SDS011;9882;51.166;6.992;2023-01-28T10:12:37;32.92;;;13.85;;
19482;SDS011;9882;51.166;6.992;2023-01-28T10:15:27;33.30;;;13.13;;
19482;SDS011;9882;51.166;6.992;2023-01-28T10:18:10;26.50;;;11.65;;
19482;SDS011;9882;51.166;6.992;2023-01-28T10:20:44;30.52;;;9.48;;
19482;SDS011;9882;51.166;6.992;2023-01-28T10:23:17;31.30;;;12.20;;
19482;SDS011;9882;51.166;6.992;2023-01-28T10:25:52;27.63;;;12.10;;
19482;SDS011;9882;51.166;6.992;2023-01-28T10:28:24;30.60;;;11.48;;
19482;SDS011;9882;51.166;6.992;2023-01-28T10:30:56;30.23;;;12.73;;
19482;SDS011;9882;51.166;6.992;2023-01-28T10:33:27;28.20;;;12.00;;
19482;SDS011;9882;51.166;6.992;2023-01-28T10:36:00;28.20;;;11.48;;
19482;SDS011;9882;51.166;6.992;2023-01-28T10:38:30;23.42;;;10.30;;
19482;SDS011;9882;51.166;6.992;2023-01-28T10:41:00;34.72;;;12.77;;
19482;SDS011;9882;51.166;6.992;2023-01-28T10:43:30;28.75;;;12.02;;
19482;SDS011;9882;51.166;6.992;2023-01-28T10:46:03;35.78;;;11.95;;
19482;SDS011;9882;51.166;6.992;2023-01-28T10:48:35;29.30;;;11.55;;
19482;SDS011;9882;51.166;6.992;2023-01-28T10:51:08;28.55;;;12.38;;
19482;SDS011;9882;51.166;6.992;2023-01-28T10:53:38;29.90;;;12.13;;
19482;SDS011;9882;51.166;6.992;2023-01-28T10:56:08;26.15;;;11.18;;
19482;SDS011;9882;51.166;6.992;2023-01-28T10:58:46;27.88;;;12.25;;
19482;SDS011;9882;51.166;6.992;2023-01-28T11:01:22;28.00;;;11.43;;
19482;SDS011;9882;51.166;6.992;2023-01-28T11:03:52;26.88;;;10.68;;
19482;SDS011;9882;51.166;6.992;2023-01-28T11:06:23;26.95;;;11.35;;
19482;SDS011;9882;51.166;6.992;2023-01-28T11:08:54;30.02;;;11.90;;
19482;SDS011;9882;51.166;6.992;2023-01-28T11:11:26;28.08;;;12.13;;
19482;SDS011;9882;51.166;6.992;2023-01-28T11:13:56;25.35;;;10.45;;
19482;SDS011;9882;51.166;6.992;2023-01-28T11:16:28;28.38;;;11.45;;
19482;SDS011;9882;51.166;6.992;2023-01-28T11:18:58;28.35;;;11.05;;
19482;SDS011;9882;51.166;6.992;2023-01-28T11:21:30;31.05;;;12.48;;
19482;SDS011;9882;51.166;6.992;2023-01-28T11:24:01;39.75;;;11.13;;
19482;SDS011;9882;51.166;6.992;2023-01-28T11:26:33;29.50;;;12.25;;
19482;SDS011;9882;51.166;6.992;2023-01-28T11:29:03;28.23;;;11.07;;
19482;SDS011;9882;51.166;6.992;2023-01-28T11:31:36;28.20;;;11.75;;
19482;SDS011;9882;51.166;6.992;2023-01-28T11:34:10;35.50;;;10.90;;
19482;SDS011;9882;51.166;6.992;2023-01-28T11:36:48;27.38;;;11.57;;
19482;SDS011;9882;51.166;6.992;2023-01-28T11:39:19;27.67;;;11.13;;
19482;SDS011;9882;51.166;6.992;2023-01-28T11:41:51;28.77;;;10.50;;
19482;SDS011;9882;51.166;6.992;2023-01-28T11:44:21;27.13;;;11.65;;
19482;SDS011;9882;51.166;6.992;2023-01-28T11:46:55;26.35;;;11.48;;
19482;SDS011;9882;51.166;6.992;2023-01-28T11:49:51;30.90;;;11.70;;
19482;SDS011;9882;51.166;6.992;2023-01-28T11:52:37;28.55;;;11.30;;
19482;SDS011;9882;51.166;6.992;2023-01-28T11:55:39;28.80;;;10.98;;
19482;SDS011;9882;51.166;6.992;2023-01-28T11:58:19;29.30;;;11.52;;
19482;SDS011;9882;51.166;6.992;2023-01-28T12:00:51;30.73;;;12.23;;
19482;SDS011;9882;51.166;6.992;2023-01-28T12:03:40;31.13;;;11.77;;
19482;SDS011;9882;51.166;6.992;2023-01-28T12:06:31;36.17;;;12.95;;
19482;SDS011;9882;51.166;6.992;2023-01-28T12:09:16;30.15;;;12.75;;
19482;SDS011;9882;51.166;6.992;2023-01-28T12:11:56;29.60;;;12.98;;
19482;SDS011;9882;51.166;6.992;2023-01-28T12:14:55;26.63;;;11.70;;
19482;SDS011;9882;51.166;6.992;2023-01-28T12:17:48;29.77;;;12.45;;
19482;SDS011;9882;51.166;6.992;2023-01-28T12:20:29;27.90;;;12.35;;
19482;SDS011;9882;51.166;6.992;2023-01-28T12:23:04;29.95;;;12.32;;
19482;SDS011;9882;51.166;6.992;2023-01-28T12:25:56;26.90;;;12.02;;
19482;SDS011;9882;51.166;6.992;2023-01-28T12:28:35;28.65;;;12.48;;
19482;SDS011;9882;51.166;6.992;2023-01-28T12:31:17;33.72;;;13.27;;
19482;SDS011;9882;51.166;6.992;2023-01-28T12:34:06;31.77;;;12.15;;
19482;SDS011;9882;51.166;6.992;2023-01-28T12:36:57;29.38;;;11.55;;
19482;SDS011;9882;51.166;6.992;2023-01-28T12:39:38;25.27;;;11.88;;
19482;SDS011;9882;51.166;6.992;2023-01-28T12:42:15;28.90;;;12.55;;
19482;SDS011;9882;51.166;6.992;2023-01-28T12:44:49;31.65;;;13.13;;
19482;SDS011;9882;51.166;6.992;2023-01-28T12:47:19;33.70;;;13.02;;
19482;SDS011;9882;51.166;6.992;2023-01-28T12:49:54;29.63;;;11.95;;
19482;SDS011;9882;51.166;6.992;2023-01-28T12:52:28;28.55;;;11.57;;
19482;SDS011;9882;51.166;6.992;2023-01-28T12:55:03;29.67;;;12.27;;
19482;SDS011;9882;51.166;6.992;2023-01-28T12:57:40;32.33;;;12.15;;
19482;SDS011;9882;51.166;6.992;2023-01-28T13:00:17;27.63;;;12.35;;
19482;SDS011;9882;51.166;6.992;2023-01-28T13:02:54;32.45;;;12.45;;
19482;SDS011;9882;51.166;6.992;2023-01-28T13:05:30;27.65;;;12.93;;
19482;SDS011;9882;51.166;6.992;2023-01-28T13:08:09;27.73;;;10.77;;
19482;SDS011;9882;51.166;6.992;2023-01-28T13:10:41;28.05;;;11.05;;
19482;SDS011;9882;51.166;6.992;2023-01-28T13:13:12;31.17;;;12.85;;
19482;SDS011;9882;51.166;6.992;2023-01-28T13:15:45;28.25;;;12.18;;
19482;SDS011;9882;51.166;6.992;2023-01-28T13:18:29;30.85;;;12.13;;
19482;SDS011;9882;51.166;6.992;2023-01-28T13:21:01;30.10;;;11.73;;
19482;SDS011;9882;51.166;6.992;2023-01-28T13:23:37;31.73;;;11.77;;
19482;SDS011;9882;51.166;6.992;2023-01-28T13:26:10;32.92;;;13.18;;
19482;SDS011;9882;51.166;6.992;2023-01-28T13:29:06;33.65;;;12.55;;
19482;SDS011;9882;51.166;6.992;2023-01-28T13:31:50;30.08;;;11.80;;
19482;SDS011;9882;51.166;6.992;2023-01-28T13:34:30;30.27;;;12.35;;
19482;SDS011;9882;51.166;6.992;2023-01-28T13:39:51;29.65;;;12.25;;
19482;SDS011;9882;51.166;6.992;2023-01-28T13:42:24;27.30;;;12.82;;
19482;SDS011;9882;51.166;6.992;2023-01-28T13:44:54;29.52;;;11.70;;
19482;SDS011;9882;51.166;6.992;2023-01-28T13:47:35;27.13;;;12.65;;
19482;SDS011;9882;51.166;6.992;2023-01-28T13:50:06;27.35;;;12.45;;
19482;SDS011;9882;51.166;6.992;2023-01-28T13:52:43;32.72;;;12.82;;
19482;SDS011;9882;51.166;6.992;2023-01-28T13:55:18;32.85;;;12.88;;
19482;SDS011;9882;51.166;6.992;2023-01-28T14:01:11;27.67;;;11.63;;
19482;SDS011;9882;51.166;6.992;2023-01-28T14:07:17;29.60;;;12.85;;
19482;SDS011;9882;51.166;6.992;2023-01-28T14:10:20;25.85;;;11.82;;
19482;SDS011;9882;51.166;6.992;2023-01-28T14:13:21;27.33;;;12.20;;
19482;SDS011;9882;51.166;6.992;2023-01-28T14:19:14;30.27;;;13.00;;
19482;SDS011;9882;51.166;6.992;2023-01-28T14:21:43;31.30;;;14.02;;
19482;SDS011;9882;51.166;6.992;2023-01-28T14:24:13;33.42;;;13.85;;
19482;SDS011;9882;51.166;6.992;2023-01-28T14:26:48;33.47;;;12.75;;
19482;SDS011;9882;51.166;6.992;2023-01-28T14:29:26;30.65;;;13.52;;
19482;SDS011;9882;51.166;6.992;2023-01-28T14:32:11;31.42;;;13.35;;
19482;SDS011;9882;51.166;6.992;2023-01-28T14:34:43;30.05;;;13.15;;
19482;SDS011;9882;51.166;6.992;2023-01-28T14:37:14;31.70;;;12.60;;
19482;SDS011;9882;51.166;6.992;2023-01-28T14:39:46;28.35;;;11.93;;
19482;SDS011;9882;51.166;6.992;2023-01-28T14:42:21;31.42;;;12.68;;
19482;SDS011;9882;51.166;6.992;2023-01-28T14:44:54;30.65;;;12.73;;
19482;SDS011;9882;51.166;6.992;2023-01-28T14:47:41;29.38;;;12.73;;
19482;SDS011;9882;51.166;6.992;2023-01-28T14:50:33;27.45;;;11.38;;
19482;SDS011;9882;51.166;6.992;2023-01-28T14:53:23;28.98;;;11.07;;
19482;SDS011;9882;51.166;6.992;2023-01-28T14:56:04;25.42;;;10.02;;
19482;SDS011;9882;51.166;6.992;2023-01-28T14:58:45;28.77;;;11.68;;
19482;SDS011;9882;51.166;6.992;2023-01-28T15:01:18;24.67;;;11.40;;
19482;SDS011;9882;51.166;6.992;2023-01-28T15:03:49;28.85;;;12.15;;
19482;SDS011;9882;51.166;6.992;2023-01-28T15:06:19;30.38;;;12.02;;
19482;SDS011;9882;51.166;6.992;2023-01-28T15:08:50;30.05;;;12.25;;
19482;SDS011;9882;51.166;6.992;2023-01-28T15:11:20;32.53;;;12.95;;
19482;SDS011;9882;51.166;6.992;2023-01-28T15:13:55;27.58;;;11.93;;
19482;SDS011;9882;51.166;6.992;2023-01-28T15:16:26;31.23;;;12.18;;
19482;SDS011;9882;51.166;6.992;2023-01-28T15:18:58;32.72;;;12.77;;
19482;SDS011;9882;51.166;6.992;2023-01-28T15:21:28;28.40;;;11.45;;
19482;SDS011;9882;51.166;6.992;2023-01-28T15:23:58;28.23;;;12.13;;
19482;SDS011;9882;51.166;6.992;2023-01-28T15:26:29;30.65;;;12.20;;
19482;SDS011;9882;51.166;6.992;2023-01-28T15:29:02;30.10;;;13.10;;
19482;SDS011;9882;51.166;6.992;2023-01-28T15:31:32;31.92;;;13.02;;
19482;SDS011;9882;51.166;6.992;2023-01-28T15:34:10;27.08;;;12.18;;
19482;SDS011;9882;51.166;6.992;2023-01-28T15:36:42;32.35;;;11.68;;
19482;SDS011;9882;51.166;6.992;2023-01-28T15:39:13;33.35;;;11.77;;
19482;SDS011;9882;51.166;6.992;2023-01-28T15:41:44;31.48;;;12.65;;